createdAt,value
2023-02-09T00:02:51.105Z,0.35
2023-02-09T00:07:56.574Z,0.31
2023-02-09T00:13:20.267Z,0.36
2023-02-09T00:18:28.671Z,0.31
2023-02-09T00:23:36.636Z,0.32
2023-02-09T00:28:42.102Z,0.35
2023-02-09T00:33:47.715Z,0.22
2023-02-09T00:38:53.419Z,0.22
2023-02-09T00:43:59.006Z,0.20
2023-02-09T00:49:05.868Z,0.14
2023-02-09T00:54:11.461Z,0.09
2023-02-09T00:59:17.766Z,0.06
2023-02-09T01:04:23.321Z,0.08
2023-02-09T01:09:28.910Z,0.12
2023-02-09T01:14:34.441Z,0.07
2023-02-09T01:19:39.965Z,0.07
2023-02-09T01:24:45.630Z,0.05
2023-02-09T01:29:52.872Z,-0.04
2023-02-09T01:34:58.341Z,-0.04
2023-02-09T01:40:04.784Z,-0.06
2023-02-09T01:45:32.985Z,-0.11
2023-02-09T01:50:41.521Z,-0.12
2023-02-09T01:55:52.554Z,-0.15
2023-02-09T02:01:00.046Z,-0.16
2023-02-09T02:06:08.595Z,-0.20
2023-02-09T02:11:14.435Z,-0.23
2023-02-09T02:16:29.196Z,-0.18
2023-02-09T02:21:43.481Z,-0.18
2023-02-09T02:27:08.198Z,-0.21
2023-02-09T02:32:28.866Z,-0.33
2023-02-09T02:37:52.608Z,-0.33
2023-02-09T02:43:01.050Z,-0.29
2023-02-09T02:48:31.157Z,-0.27
2023-02-09T02:53:38.942Z,-0.41
2023-02-09T02:58:47.264Z,-0.40
2023-02-09T03:03:54.636Z,-0.45
2023-02-09T03:09:00.684Z,-0.42
2023-02-09T03:14:24.376Z,-0.41
2023-02-09T03:19:44.219Z,-0.46
2023-02-09T03:25:10.982Z,-0.48
2023-02-09T03:30:18.048Z,-0.58
2023-02-09T03:35:26.608Z,-0.60
2023-02-09T03:40:32.151Z,-0.71
2023-02-09T03:45:37.688Z,-0.62
2023-02-09T03:50:43.681Z,-0.60
2023-02-09T03:55:49.542Z,-0.58
2023-02-09T04:00:55.058Z,-0.55
2023-02-09T04:06:00.750Z,-0.63
2023-02-09T04:11:06.384Z,-0.68
2023-02-09T04:16:11.882Z,-0.71
2023-02-09T04:21:17.463Z,-0.71
2023-02-09T04:26:23.107Z,-0.80
2023-02-09T04:31:28.804Z,-0.82
2023-02-09T04:36:34.468Z,-0.77
2023-02-09T04:41:40.032Z,-0.79
2023-02-09T04:46:45.840Z,-0.91
2023-02-09T04:51:51.375Z,-0.89
2023-02-09T04:57:15.090Z,-0.87
2023-02-09T05:02:20.628Z,-0.97
2023-02-09T05:07:26.762Z,-0.98
2023-02-09T05:12:33.318Z,-1.00
2023-02-09T05:17:39.048Z,-0.99
2023-02-09T05:22:44.651Z,-0.93
2023-02-09T05:27:50.253Z,-0.92
2023-02-09T05:32:56.321Z,-1.05
2023-02-09T05:38:01.837Z,-1.14
2023-02-09T05:43:07.437Z,-1.05
2023-02-09T05:48:12.907Z,-1.05
2023-02-09T05:53:18.769Z,-1.13
2023-02-09T05:58:24.152Z,-1.19
2023-02-09T06:03:29.828Z,-1.16
2023-02-09T06:08:35.382Z,-1.25
2023-02-09T06:13:40.898Z,-1.29
2023-02-09T06:18:46.553Z,-1.38
2023-02-09T06:23:52.445Z,-1.27
2023-02-09T06:28:57.913Z,-1.25
2023-02-09T06:34:05.413Z,-1.23
2023-02-09T06:39:11.889Z,-1.22
2023-02-09T06:44:17.275Z,-1.24
2023-02-09T06:49:24.196Z,-1.14
2023-02-09T06:54:30.257Z,-1.24
2023-02-09T06:59:35.676Z,-1.22
2023-02-09T07:04:41.114Z,-1.18
2023-02-09T07:09:46.602Z,-1.09
2023-02-09T07:14:52.076Z,-1.14
2023-02-09T07:19:58.006Z,-1.00
2023-02-09T07:25:03.485Z,-0.99
2023-02-09T07:30:10.027Z,-1.07
2023-02-09T07:35:15.481Z,-0.97
2023-02-09T07:40:21.246Z,-0.93
2023-02-09T07:45:26.787Z,-0.96
2023-02-09T07:50:32.883Z,-0.92
2023-02-09T07:55:39.789Z,-0.83
2023-02-09T08:00:45.984Z,-0.68
2023-02-09T08:06:03.581Z,-0.55
2023-02-09T08:11:09.170Z,-0.39
2023-02-09T08:16:17.664Z,-0.28
2023-02-09T08:21:23.831Z,-0.16
2023-02-09T08:26:30.357Z,0.06
2023-02-09T08:31:36.046Z,0.19
2023-02-09T08:36:41.924Z,0.99
2023-02-09T08:41:47.344Z,0.62
2023-02-09T08:46:53.046Z,-0.68
2023-02-09T08:51:58.572Z,0.75
2023-02-09T08:57:04.235Z,0.80
2023-02-09T09:02:09.696Z,0.70
2023-02-09T09:07:15.531Z,0.87
2023-02-09T09:12:21.156Z,0.96
2023-02-09T09:17:26.677Z,1.12
2023-02-09T09:22:33.800Z,1.33
2023-02-09T09:27:39.330Z,1.45
2023-02-09T09:32:44.888Z,1.69
2023-02-09T09:37:50.483Z,1.90
2023-02-09T09:42:59.154Z,2.07
2023-02-09T09:48:05.321Z,2.09
2023-02-09T09:53:19.868Z,2.30
2023-02-09T09:58:25.764Z,2.20
2023-02-09T10:03:31.288Z,2.37
2023-02-09T10:08:39.813Z,2.54
2023-02-09T10:13:50.642Z,2.54
2023-02-09T10:19:01.999Z,2.59
2023-02-09T10:24:17.224Z,2.63
2023-02-09T10:29:27.199Z,2.93
2023-02-09T10:34:44.858Z,2.95
2023-02-09T10:39:56.178Z,3.05
2023-02-09T10:45:28.645Z,3.26
2023-02-09T10:50:34.208Z,3.44
2023-02-09T10:55:42.315Z,3.65
2023-02-09T11:01:02.568Z,3.50
2023-02-09T11:06:19.818Z,3.36
2023-02-09T11:11:31.286Z,3.39
2023-02-09T11:16:52.046Z,3.51
2023-02-09T11:22:06.975Z,3.44
2023-02-09T11:27:38.191Z,3.85
2023-02-09T11:32:49.237Z,3.87
2023-02-09T11:38:01.706Z,3.93
2023-02-09T11:43:10.267Z,4.02
2023-02-09T11:48:27.987Z,4.12
2023-02-09T11:53:45.592Z,4.13
2023-02-09T11:59:19.168Z,4.36
2023-02-09T12:04:53.698Z,4.57
2023-02-09T12:10:31.030Z,4.33
2023-02-09T12:15:49.368Z,4.70
2023-02-09T12:21:03.990Z,5.06
2023-02-09T12:26:24.068Z,5.06
2023-02-09T12:31:30.172Z,5.16
2023-02-09T12:36:36.495Z,4.84
2023-02-09T12:41:44.937Z,5.09
2023-02-09T12:46:53.622Z,4.83
2023-02-09T12:52:16.970Z,4.48
2023-02-09T12:57:28.655Z,4.48
2023-02-09T13:02:52.363Z,4.63
2023-02-09T13:08:19.102Z,4.86
2023-02-09T13:13:36.744Z,4.64
2023-02-09T13:19:03.457Z,4.71
2023-02-09T13:24:22.871Z,4.71
2023-02-09T13:29:31.330Z,5.15
2023-02-09T13:34:58.933Z,5.15
2023-02-09T13:40:23.798Z,5.21
2023-02-09T13:45:29.742Z,5.19
2023-02-09T13:50:35.185Z,5.14
2023-02-09T13:55:42.984Z,5.07
2023-02-09T14:00:58.114Z,5.08
2023-02-09T14:06:12.875Z,5.08
2023-02-09T14:11:41.531Z,5.19
2023-02-09T14:16:51.602Z,4.84
2023-02-09T14:21:46.972Z,4.92
2023-02-09T14:27:06.888Z,4.66
2023-02-09T14:32:47.930Z,4.66
2023-02-09T14:37:56.314Z,4.67
2023-02-09T14:43:04.781Z,4.67
2023-02-09T14:48:22.313Z,4.66
2023-02-09T14:53:30.756Z,4.57
2023-02-09T14:58:36.267Z,4.34
2023-02-09T15:03:41.831Z,4.34
2023-02-09T15:08:47.365Z,4.26
2023-02-09T15:14:02.953Z,4.02
2023-02-09T15:19:14.932Z,3.86
2023-02-09T15:24:20.672Z,3.90
2023-02-09T15:29:27.383Z,3.80
2023-02-09T15:34:32.912Z,3.72
2023-02-09T15:39:38.361Z,3.76
2023-02-09T15:45:01.550Z,3.65
2023-02-09T15:50:07.505Z,3.66
2023-02-09T15:55:18.673Z,3.36
2023-02-09T16:00:27.287Z,3.33
2023-02-09T16:05:32.857Z,4.01
2023-02-09T16:10:38.236Z,3.46
2023-02-09T16:15:44.008Z,3.29
2023-02-09T16:20:52.336Z,3.12
2023-02-09T16:26:01.617Z,3.07
2023-02-09T16:31:08.641Z,3.00
2023-02-09T16:36:16.823Z,2.92
2023-02-09T16:41:40.234Z,2.88
2023-02-09T16:46:47.971Z,2.82
2023-02-09T16:51:53.693Z,2.83
2023-02-09T16:56:59.259Z,2.83
2023-02-09T17:02:05.496Z,2.86
2023-02-09T17:07:12.462Z,2.84
2023-02-09T17:12:17.928Z,2.84
2023-02-09T17:17:23.859Z,2.84
2023-02-09T17:22:29.527Z,2.75
2023-02-09T17:27:35.048Z,2.71
2023-02-09T17:32:41.311Z,2.67
2023-02-09T17:37:47.678Z,2.70
2023-02-09T17:42:54.110Z,2.59
2023-02-09T17:48:01.007Z,2.54
2023-02-09T17:53:09.707Z,2.56
2023-02-09T17:58:15.780Z,2.47
2023-02-09T18:03:24.034Z,2.40
2023-02-09T18:08:31.183Z,2.35
2023-02-09T18:13:36.569Z,2.27
2023-02-09T18:18:43.202Z,2.23
2023-02-09T18:23:49.331Z,2.27
2023-02-09T18:28:54.774Z,1.96
2023-02-09T18:34:00.240Z,2.16
2023-02-09T18:39:05.976Z,2.14
2023-02-09T18:44:11.981Z,2.09
2023-02-09T18:49:17.527Z,2.04
2023-02-09T18:54:23.179Z,2.08
2023-02-09T18:59:33.379Z,1.98
2023-02-09T19:04:39.669Z,1.94
2023-02-09T19:09:46.006Z,1.82
2023-02-09T19:14:52.422Z,1.93
2023-02-09T19:20:03.134Z,1.97
2023-02-09T19:25:09.106Z,2.03
2023-02-09T19:30:17.579Z,1.95
2023-02-09T19:35:23.823Z,1.92
2023-02-09T19:40:31.238Z,1.90
2023-02-09T19:45:37.799Z,1.93
2023-02-09T19:50:43.635Z,1.97
2023-02-09T19:55:53.594Z,1.96
2023-02-09T20:00:59.165Z,1.92
2023-02-09T20:06:32.775Z,1.90
2023-02-09T20:11:38.510Z,1.80
2023-02-09T20:16:43.991Z,1.78
2023-02-09T20:21:49.741Z,1.73
2023-02-09T20:26:55.450Z,1.73
2023-02-09T20:32:01.809Z,1.67
2023-02-09T20:37:07.422Z,1.63
2023-02-09T20:42:31.344Z,1.56
2023-02-09T20:47:36.976Z,1.52
2023-02-09T20:52:45.816Z,1.52
2023-02-09T20:57:52.046Z,1.51
2023-02-09T21:02:57.657Z,1.52
2023-02-09T21:08:04.712Z,1.57
2023-02-09T21:13:11.895Z,1.59
2023-02-09T21:18:19.123Z,1.67
2023-02-09T21:23:24.824Z,1.77
2023-02-09T21:28:30.881Z,1.83
2023-02-09T21:33:37.374Z,1.83
2023-02-09T21:38:43.164Z,1.88
2023-02-09T21:43:49.292Z,2.00
2023-02-09T21:48:55.410Z,2.04
2023-02-09T21:54:00.855Z,2.04
2023-02-09T21:59:06.436Z,2.04
2023-02-09T22:04:12.815Z,1.98
2023-02-09T22:09:20.382Z,1.97
2023-02-09T22:14:25.968Z,1.98
2023-02-09T22:19:31.444Z,2.04
2023-02-09T22:24:44.608Z,2.01
2023-02-09T22:29:50.039Z,1.85
2023-02-09T22:34:55.504Z,1.83
2023-02-09T22:40:01.069Z,1.87
2023-02-09T22:45:08.240Z,1.84
2023-02-09T22:50:13.685Z,1.88
2023-02-09T22:55:19.145Z,1.97
2023-02-09T23:00:24.672Z,2.01
2023-02-09T23:05:30.164Z,1.99
2023-02-09T23:10:35.693Z,1.97
2023-02-09T23:15:41.257Z,1.85
2023-02-09T23:20:47.780Z,1.79
2023-02-09T23:25:53.863Z,1.78
2023-02-09T23:31:01.959Z,1.72
2023-02-09T23:36:09.449Z,1.72
2023-02-09T23:41:19.669Z,1.71
2023-02-09T23:46:28.899Z,1.73
2023-02-09T23:51:36.594Z,1.74
2023-02-09T23:56:42.183Z,1.77
